Harrison Township, Michigan
Current Conditions -  °F | °C
As of 9:58 PM on Tuesday 25 Nov 2014 (Local Time) from KMTC Reporting Station
Overcast Overcast  
Wind Chill:   Ceiling: 2700
Heat Index:   Visibility: 10mi
Dew Point: -5°   Wind: 3mph
Humidity: 68%   Direction: 270°W
Pressure: 30.18"   Gusts: NA
Location:  42.58°N, 82.83°W
Report Text: KMTC 260258Z AUTO 27003KT 10SM OVC027 00/M05 A3018 RMK AO2 SLP230 T10011053 52022
Loading
Personal Weather Stations






























Interactive Weather Map New forecast layout! Learn more

10-Day Weather Forecast

Advertisements
Track Severe Weather on mobile